sensor_id;sensor_type;location;lat;lon;timestamp;temperature;humidity
29775;DHT22;16676;51.202;6.774;2023-05-10T00:01:41;22.80;69.30
29775;DHT22;16676;51.202;6.774;2023-05-10T00:05:43;22.80;69.20
29775;DHT22;16676;51.202;6.774;2023-05-10T00:09:46;22.80;69.10
29775;DHT22;16676;51.202;6.774;2023-05-10T00:13:48;22.80;68.90
29775;DHT22;16676;51.202;6.774;2023-05-10T00:17:50;22.80;69.80
29775;DHT22;16676;51.202;6.774;2023-05-10T00:21:52;22.80;69.20
29775;DHT22;16676;51.202;6.774;2023-05-10T00:25:55;22.80;69.30
29775;DHT22;16676;51.202;6.774;2023-05-10T00:29:57;22.80;69.10
29775;DHT22;16676;51.202;6.774;2023-05-10T00:33:59;22.80;69.20
29775;DHT22;16676;51.202;6.774;2023-05-10T00:38:01;22.80;69.40
29775;DHT22;16676;51.202;6.774;2023-05-10T00:42:04;22.80;69.20
29775;DHT22;16676;51.202;6.774;2023-05-10T00:46:06;22.80;69.00
29775;DHT22;16676;51.202;6.774;2023-05-10T00:50:09;22.80;69.20
29775;DHT22;16676;51.202;6.774;2023-05-10T00:54:12;22.80;69.70
29775;DHT22;16676;51.202;6.774;2023-05-10T00:58:17;22.80;69.30
29775;DHT22;16676;51.202;6.774;2023-05-10T01:02:19;22.80;69.50
29775;DHT22;16676;51.202;6.774;2023-05-10T01:06:20;22.70;69.60
29775;DHT22;16676;51.202;6.774;2023-05-10T01:10:22;22.70;69.10
29775;DHT22;16676;51.202;6.774;2023-05-10T01:14:26;22.80;69.20
29775;DHT22;16676;51.202;6.774;2023-05-10T01:18:30;22.70;69.70
29775;DHT22;16676;51.202;6.774;2023-05-10T01:23:04;22.70;69.30
29775;DHT22;16676;51.202;6.774;2023-05-10T01:27:37;22.70;69.30
29775;DHT22;16676;51.202;6.774;2023-05-10T01:32:08;22.70;70.00
29775;DHT22;16676;51.202;6.774;2023-05-10T01:36:18;22.70;69.60
29775;DHT22;16676;51.202;6.774;2023-05-10T01:40:30;22.70;69.30
29775;DHT22;16676;51.202;6.774;2023-05-10T01:44:35;22.70;69.60
29775;DHT22;16676;51.202;6.774;2023-05-10T01:48:43;22.70;69.80
29775;DHT22;16676;51.202;6.774;2023-05-10T01:52:53;22.70;69.60
29775;DHT22;16676;51.202;6.774;2023-05-10T01:57:00;22.70;69.60
29775;DHT22;16676;51.202;6.774;2023-05-10T02:01:05;22.70;69.70
29775;DHT22;16676;51.202;6.774;2023-05-10T02:05:12;22.70;70.00
29775;DHT22;16676;51.202;6.774;2023-05-10T02:09:14;22.70;69.10
29775;DHT22;16676;51.202;6.774;2023-05-10T02:13:18;22.70;69.80
29775;DHT22;16676;51.202;6.774;2023-05-10T02:17:21;22.70;70.20
29775;DHT22;16676;51.202;6.774;2023-05-10T02:21:26;22.70;70.00
29775;DHT22;16676;51.202;6.774;2023-05-10T02:25:29;22.70;69.60
29775;DHT22;16676;51.202;6.774;2023-05-10T02:29:32;22.70;69.60
29775;DHT22;16676;51.202;6.774;2023-05-10T02:33:35;22.70;69.80
29775;DHT22;16676;51.202;6.774;2023-05-10T02:37:39;22.70;70.10
29775;DHT22;16676;51.202;6.774;2023-05-10T02:41:42;22.70;69.30
29775;DHT22;16676;51.202;6.774;2023-05-10T02:45:47;22.70;70.20
29775;DHT22;16676;51.202;6.774;2023-05-10T02:49:49;22.70;69.60
29775;DHT22;16676;51.202;6.774;2023-05-10T02:53:53;22.60;69.20
29775;DHT22;16676;51.202;6.774;2023-05-10T02:57:59;22.70;69.80
29775;DHT22;16676;51.202;6.774;2023-05-10T03:02:02;22.70;69.90
29775;DHT22;16676;51.202;6.774;2023-05-10T03:06:04;22.60;69.40
29775;DHT22;16676;51.202;6.774;2023-05-10T03:10:09;22.60;69.60
29775;DHT22;16676;51.202;6.774;2023-05-10T03:14:21;22.60;69.90
29775;DHT22;16676;51.202;6.774;2023-05-10T03:18:28;22.70;69.70
29775;DHT22;16676;51.202;6.774;2023-05-10T03:22:34;22.70;69.60
29775;DHT22;16676;51.202;6.774;2023-05-10T03:26:38;22.60;69.90
29775;DHT22;16676;51.202;6.774;2023-05-10T03:30:43;22.60;70.20
29775;DHT22;16676;51.202;6.774;2023-05-10T03:34:45;22.60;69.60
29775;DHT22;16676;51.202;6.774;2023-05-10T03:38:47;22.60;69.60
29775;DHT22;16676;51.202;6.774;2023-05-10T03:42:50;22.60;69.70
29775;DHT22;16676;51.202;6.774;2023-05-10T03:46:52;22.60;70.50
29775;DHT22;16676;51.202;6.774;2023-05-10T03:50:54;22.60;69.80
29775;DHT22;16676;51.202;6.774;2023-05-10T03:54:56;22.60;69.30
29775;DHT22;16676;51.202;6.774;2023-05-10T03:58:59;22.60;70.00
29775;DHT22;16676;51.202;6.774;2023-05-10T04:03:01;22.60;70.20
29775;DHT22;16676;51.202;6.774;2023-05-10T04:07:03;22.60;69.50
29775;DHT22;16676;51.202;6.774;2023-05-10T04:11:05;22.60;69.70
29775;DHT22;16676;51.202;6.774;2023-05-10T04:15:10;22.60;69.90
29775;DHT22;16676;51.202;6.774;2023-05-10T04:19:12;22.60;70.20
29775;DHT22;16676;51.202;6.774;2023-05-10T04:23:13;22.60;69.80
29775;DHT22;16676;51.202;6.774;2023-05-10T04:27:17;22.60;70.30
29775;DHT22;16676;51.202;6.774;2023-05-10T04:31:20;22.60;70.20
29775;DHT22;16676;51.202;6.774;2023-05-10T04:35:22;22.60;70.60
29775;DHT22;16676;51.202;6.774;2023-05-10T04:39:24;22.60;70.50
29775;DHT22;16676;51.202;6.774;2023-05-10T04:43:26;22.60;69.50
29775;DHT22;16676;51.202;6.774;2023-05-10T04:47:29;22.50;69.70
29775;DHT22;16676;51.202;6.774;2023-05-10T04:51:31;22.50;70.20
29775;DHT22;16676;51.202;6.774;2023-05-10T04:55:33;22.60;70.70
29775;DHT22;16676;51.202;6.774;2023-05-10T04:59:35;22.60;70.50
29775;DHT22;16676;51.202;6.774;2023-05-10T05:03:39;22.60;71.40
29775;DHT22;16676;51.202;6.774;2023-05-10T05:07:41;22.50;70.00
29775;DHT22;16676;51.202;6.774;2023-05-10T05:11:43;22.60;70.50
29775;DHT22;16676;51.202;6.774;2023-05-10T05:15:45;22.60;70.50
29775;DHT22;16676;51.202;6.774;2023-05-10T05:19:48;22.60;70.20
29775;DHT22;16676;51.202;6.774;2023-05-10T05:23:50;22.60;70.60
29775;DHT22;16676;51.202;6.774;2023-05-10T05:27:52;22.60;69.90
29775;DHT22;16676;51.202;6.774;2023-05-10T05:31:54;22.50;69.80
29775;DHT22;16676;51.202;6.774;2023-05-10T05:35:57;22.50;70.80
29775;DHT22;16676;51.202;6.774;2023-05-10T05:40:01;22.50;70.00
29775;DHT22;16676;51.202;6.774;2023-05-10T05:44:04;22.50;70.40
29775;DHT22;16676;51.202;6.774;2023-05-10T05:48:05;22.50;70.00
29775;DHT22;16676;51.202;6.774;2023-05-10T05:52:09;22.50;70.10
29775;DHT22;16676;51.202;6.774;2023-05-10T05:56:11;22.50;70.00
29775;DHT22;16676;51.202;6.774;2023-05-10T06:00:13;22.50;70.30
29775;DHT22;16676;51.202;6.774;2023-05-10T06:04:16;22.50;70.10
29775;DHT22;16676;51.202;6.774;2023-05-10T06:08:19;22.50;71.20
29775;DHT22;16676;51.202;6.774;2023-05-10T06:12:21;22.50;70.10
29775;DHT22;16676;51.202;6.774;2023-05-10T06:16:23;22.50;70.80
29775;DHT22;16676;51.202;6.774;2023-05-10T06:20:25;22.50;70.10
29775;DHT22;16676;51.202;6.774;2023-05-10T06:24:29;22.50;69.90
29775;DHT22;16676;51.202;6.774;2023-05-10T06:28:31;22.50;70.50
29775;DHT22;16676;51.202;6.774;2023-05-10T06:32:34;22.50;69.90
29775;DHT22;16676;51.202;6.774;2023-05-10T06:36:35;22.40;70.80
29775;DHT22;16676;51.202;6.774;2023-05-10T06:40:42;22.50;70.30
29775;DHT22;16676;51.202;6.774;2023-05-10T06:44:44;22.50;71.10
29775;DHT22;16676;51.202;6.774;2023-05-10T06:48:46;22.50;70.30
29775;DHT22;16676;51.202;6.774;2023-05-10T06:52:48;22.40;69.90
29775;DHT22;16676;51.202;6.774;2023-05-10T06:56:51;22.40;69.90
29775;DHT22;16676;51.202;6.774;2023-05-10T07:00:53;22.40;70.00
29775;DHT22;16676;51.202;6.774;2023-05-10T07:04:55;22.40;70.00
29775;DHT22;16676;51.202;6.774;2023-05-10T07:08:58;22.40;69.50
29775;DHT22;16676;51.202;6.774;2023-05-10T07:13:01;22.40;69.60
29775;DHT22;16676;51.202;6.774;2023-05-10T07:17:03;22.40;70.10
29775;DHT22;16676;51.202;6.774;2023-05-10T07:21:05;22.40;70.30
29775;DHT22;16676;51.202;6.774;2023-05-10T07:25:07;22.40;70.10
29775;DHT22;16676;51.202;6.774;2023-05-10T07:29:11;22.50;69.80
29775;DHT22;16676;51.202;6.774;2023-05-10T07:33:13;22.50;69.60
29775;DHT22;16676;51.202;6.774;2023-05-10T07:37:16;22.40;69.80
29775;DHT22;16676;51.202;6.774;2023-05-10T07:41:18;22.50;70.50
29775;DHT22;16676;51.202;6.774;2023-05-10T07:45:22;22.40;70.10
29775;DHT22;16676;51.202;6.774;2023-05-10T07:49:25;22.40;70.10
29775;DHT22;16676;51.202;6.774;2023-05-10T07:53:27;22.40;69.50
29775;DHT22;16676;51.202;6.774;2023-05-10T07:57:29;22.40;69.50
29775;DHT22;16676;51.202;6.774;2023-05-10T08:01:34;22.40;70.00
29775;DHT22;16676;51.202;6.774;2023-05-10T08:05:36;22.40;69.90
29775;DHT22;16676;51.202;6.774;2023-05-10T08:09:38;22.40;69.80
29775;DHT22;16676;51.202;6.774;2023-05-10T08:13:40;22.50;69.30
29775;DHT22;16676;51.202;6.774;2023-05-10T08:17:43;22.50;69.40
29775;DHT22;16676;51.202;6.774;2023-05-10T08:21:45;22.50;69.10
29775;DHT22;16676;51.202;6.774;2023-05-10T08:25:47;22.50;71.20
29775;DHT22;16676;51.202;6.774;2023-05-10T08:29:49;22.50;70.20
29775;DHT22;16676;51.202;6.774;2023-05-10T08:33:52;22.50;69.80
29775;DHT22;16676;51.202;6.774;2023-05-10T08:37:54;22.50;69.50
29775;DHT22;16676;51.202;6.774;2023-05-10T08:41:59;22.50;70.40
29775;DHT22;16676;51.202;6.774;2023-05-10T08:46:05;22.50;70.00
29775;DHT22;16676;51.202;6.774;2023-05-10T08:50:10;22.50;70.80
29775;DHT22;16676;51.202;6.774;2023-05-10T08:54:13;22.50;70.60
29775;DHT22;16676;51.202;6.774;2023-05-10T08:58:15;22.50;70.10
29775;DHT22;16676;51.202;6.774;2023-05-10T09:02:18;22.50;69.50
29775;DHT22;16676;51.202;6.774;2023-05-10T09:06:22;22.50;70.40
29775;DHT22;16676;51.202;6.774;2023-05-10T09:10:25;22.50;70.40
29775;DHT22;16676;51.202;6.774;2023-05-10T09:14:27;22.50;70.50
29775;DHT22;16676;51.202;6.774;2023-05-10T09:18:30;22.50;70.70
29775;DHT22;16676;51.202;6.774;2023-05-10T09:22:33;22.50;70.00
29775;DHT22;16676;51.202;6.774;2023-05-10T09:26:35;22.50;70.40
29775;DHT22;16676;51.202;6.774;2023-05-10T09:30:53;22.50;70.40
29775;DHT22;16676;51.202;6.774;2023-05-10T09:34:56;22.50;70.20
29775;DHT22;16676;51.202;6.774;2023-05-10T09:38:59;22.50;69.80
29775;DHT22;16676;51.202;6.774;2023-05-10T09:43:03;22.50;70.30
29775;DHT22;16676;51.202;6.774;2023-05-10T09:47:06;22.50;70.40
29775;DHT22;16676;51.202;6.774;2023-05-10T09:51:08;22.50;69.30
29775;DHT22;16676;51.202;6.774;2023-05-10T09:55:11;22.50;70.10
29775;DHT22;16676;51.202;6.774;2023-05-10T09:59:13;22.50;70.50
29775;DHT22;16676;51.202;6.774;2023-05-10T10:03:16;22.50;69.40
29775;DHT22;16676;51.202;6.774;2023-05-10T10:07:23;22.50;70.30
29775;DHT22;16676;51.202;6.774;2023-05-10T10:11:27;22.50;70.00
29775;DHT22;16676;51.202;6.774;2023-05-10T10:15:30;22.50;70.60
29775;DHT22;16676;51.202;6.774;2023-05-10T10:19:33;22.50;69.90
29775;DHT22;16676;51.202;6.774;2023-05-10T10:23:35;22.50;70.50
29775;DHT22;16676;51.202;6.774;2023-05-10T10:27:45;22.60;69.80
29775;DHT22;16676;51.202;6.774;2023-05-10T10:31:55;22.60;70.80
29775;DHT22;16676;51.202;6.774;2023-05-10T10:36:00;22.60;69.90
29775;DHT22;16676;51.202;6.774;2023-05-10T10:40:23;22.60;70.20
29775;DHT22;16676;51.202;6.774;2023-05-10T10:44:37;22.60;70.10
29775;DHT22;16676;51.202;6.774;2023-05-10T10:48:41;22.60;70.60
29775;DHT22;16676;51.202;6.774;2023-05-10T10:52:43;22.60;69.60
29775;DHT22;16676;51.202;6.774;2023-05-10T10:57:11;22.60;69.40
29775;DHT22;16676;51.202;6.774;2023-05-10T11:01:16;22.60;69.60
29775;DHT22;16676;51.202;6.774;2023-05-10T11:05:45;22.60;70.00
29775;DHT22;16676;51.202;6.774;2023-05-10T11:09:47;22.60;70.60
29775;DHT22;16676;51.202;6.774;2023-05-10T11:13:51;22.50;70.10
29775;DHT22;16676;51.202;6.774;2023-05-10T11:17:54;22.60;69.60
29775;DHT22;16676;51.202;6.774;2023-05-10T11:22:12;22.60;69.80
29775;DHT22;16676;51.202;6.774;2023-05-10T11:26:14;22.60;69.50
29775;DHT22;16676;51.202;6.774;2023-05-10T11:30:16;22.60;69.90
29775;DHT22;16676;51.202;6.774;2023-05-10T11:34:27;22.60;69.50
29775;DHT22;16676;51.202;6.774;2023-05-10T11:38:32;22.60;70.00
29775;DHT22;16676;51.202;6.774;2023-05-10T11:42:35;22.60;69.70
29775;DHT22;16676;51.202;6.774;2023-05-10T11:46:37;22.60;69.90
29775;DHT22;16676;51.202;6.774;2023-05-10T11:50:41;22.60;68.90
29775;DHT22;16676;51.202;6.774;2023-05-10T11:54:46;22.60;69.70
29775;DHT22;16676;51.202;6.774;2023-05-10T11:58:53;22.60;69.40
29775;DHT22;16676;51.202;6.774;2023-05-10T12:02:56;22.60;69.90
29775;DHT22;16676;51.202;6.774;2023-05-10T12:06:59;22.60;69.30
29775;DHT22;16676;51.202;6.774;2023-05-10T12:11:06;22.70;69.30
29775;DHT22;16676;51.202;6.774;2023-05-10T12:15:16;22.60;69.30
29775;DHT22;16676;51.202;6.774;2023-05-10T12:19:19;22.60;68.50
29775;DHT22;16676;51.202;6.774;2023-05-10T12:23:23;22.60;68.70
29775;DHT22;16676;51.202;6.774;2023-05-10T12:27:25;22.60;69.10
29775;DHT22;16676;51.202;6.774;2023-05-10T12:31:26;22.60;68.50
29775;DHT22;16676;51.202;6.774;2023-05-10T12:35:30;22.60;69.40
29775;DHT22;16676;51.202;6.774;2023-05-10T12:39:40;22.60;68.90
29775;DHT22;16676;51.202;6.774;2023-05-10T12:43:42;22.60;69.00
29775;DHT22;16676;51.202;6.774;2023-05-10T12:47:46;22.60;69.00
29775;DHT22;16676;51.202;6.774;2023-05-10T12:51:47;22.60;69.60
29775;DHT22;16676;51.202;6.774;2023-05-10T12:55:51;22.60;68.70
29775;DHT22;16676;51.202;6.774;2023-05-10T12:59:54;22.70;69.90
29775;DHT22;16676;51.202;6.774;2023-05-10T13:03:56;22.60;68.70
29775;DHT22;16676;51.202;6.774;2023-05-10T13:07:58;22.60;68.80
29775;DHT22;16676;51.202;6.774;2023-05-10T13:12:01;22.60;69.00
29775;DHT22;16676;51.202;6.774;2023-05-10T13:16:04;22.60;68.70
29775;DHT22;16676;51.202;6.774;2023-05-10T13:20:06;22.60;69.10
29775;DHT22;16676;51.202;6.774;2023-05-10T13:24:08;22.60;69.00
29775;DHT22;16676;51.202;6.774;2023-05-10T13:28:12;22.60;68.70
29775;DHT22;16676;51.202;6.774;2023-05-10T13:32:14;22.60;69.20
29775;DHT22;16676;51.202;6.774;2023-05-10T13:36:16;22.60;68.80
29775;DHT22;16676;51.202;6.774;2023-05-10T13:40:18;22.60;69.30
29775;DHT22;16676;51.202;6.774;2023-05-10T13:44:21;22.60;68.90
29775;DHT22;16676;51.202;6.774;2023-05-10T13:48:23;22.60;68.80
29775;DHT22;16676;51.202;6.774;2023-05-10T13:52:25;22.60;69.00
29775;DHT22;16676;51.202;6.774;2023-05-10T13:56:27;22.60;69.00
29775;DHT22;16676;51.202;6.774;2023-05-10T14:00:31;22.60;69.00
29775;DHT22;16676;51.202;6.774;2023-05-10T14:04:33;22.60;69.00
29775;DHT22;16676;51.202;6.774;2023-05-10T14:08:36;22.60;68.80
29775;DHT22;16676;51.202;6.774;2023-05-10T14:12:38;22.60;68.90
29775;DHT22;16676;51.202;6.774;2023-05-10T14:16:43;22.60;68.50
29775;DHT22;16676;51.202;6.774;2023-05-10T14:20:45;22.70;68.60
29775;DHT22;16676;51.202;6.774;2023-05-10T14:24:47;22.60;68.70
29775;DHT22;16676;51.202;6.774;2023-05-10T14:28:49;22.60;68.50
29775;DHT22;16676;51.202;6.774;2023-05-10T14:32:52;22.60;68.90
29775;DHT22;16676;51.202;6.774;2023-05-10T14:36:54;22.70;68.90
29775;DHT22;16676;51.202;6.774;2023-05-10T14:40:56;22.70;69.10
29775;DHT22;16676;51.202;6.774;2023-05-10T14:44:58;22.70;68.70
29775;DHT22;16676;51.202;6.774;2023-05-10T14:49:02;22.80;69.20
29775;DHT22;16676;51.202;6.774;2023-05-10T14:53:03;22.70;69.10
29775;DHT22;16676;51.202;6.774;2023-05-10T14:57:06;22.70;68.70
29775;DHT22;16676;51.202;6.774;2023-05-10T15:01:07;22.70;68.30
29775;DHT22;16676;51.202;6.774;2023-05-10T15:05:11;22.70;68.10
29775;DHT22;16676;51.202;6.774;2023-05-10T15:09:13;22.70;68.50
29775;DHT22;16676;51.202;6.774;2023-05-10T15:13:16;22.70;68.60
29775;DHT22;16676;51.202;6.774;2023-05-10T15:17:18;22.80;68.40
29775;DHT22;16676;51.202;6.774;2023-05-10T15:21:21;22.70;68.70
29775;DHT22;16676;51.202;6.774;2023-05-10T15:25:23;22.70;67.40
29775;DHT22;16676;51.202;6.774;2023-05-10T15:29:25;22.70;67.50
29775;DHT22;16676;51.202;6.774;2023-05-10T15:33:27;22.80;68.00
29775;DHT22;16676;51.202;6.774;2023-05-10T15:37:30;22.80;67.70
29775;DHT22;16676;51.202;6.774;2023-05-10T15:41:32;22.70;68.20
29775;DHT22;16676;51.202;6.774;2023-05-10T15:45:34;22.70;66.70
29775;DHT22;16676;51.202;6.774;2023-05-10T15:49:36;22.70;66.10
29775;DHT22;16676;51.202;6.774;2023-05-10T15:53:39;22.70;66.10
29775;DHT22;16676;51.202;6.774;2023-05-10T15:57:42;22.70;67.20
29775;DHT22;16676;51.202;6.774;2023-05-10T16:01:45;22.70;67.00
29775;DHT22;16676;51.202;6.774;2023-05-10T16:05:48;22.70;64.20
29775;DHT22;16676;51.202;6.774;2023-05-10T16:09:51;22.70;65.50
29775;DHT22;16676;51.202;6.774;2023-05-10T16:13:53;22.70;66.00
29775;DHT22;16676;51.202;6.774;2023-05-10T16:17:55;22.70;65.40
29775;DHT22;16676;51.202;6.774;2023-05-10T16:21:57;22.70;65.20
29775;DHT22;16676;51.202;6.774;2023-05-10T16:26:00;22.70;65.10
29775;DHT22;16676;51.202;6.774;2023-05-10T16:30:03;22.70;64.60
29775;DHT22;16676;51.202;6.774;2023-05-10T16:34:05;22.70;65.20
29775;DHT22;16676;51.202;6.774;2023-05-10T16:38:07;22.60;61.50
29775;DHT22;16676;51.202;6.774;2023-05-10T16:42:10;22.50;61.10
29775;DHT22;16676;51.202;6.774;2023-05-10T16:46:12;22.40;62.00
29775;DHT22;16676;51.202;6.774;2023-05-10T16:50:14;22.40;63.30
29775;DHT22;16676;51.202;6.774;2023-05-10T16:54:16;22.40;65.90
29775;DHT22;16676;51.202;6.774;2023-05-10T16:58:19;22.40;68.80
29775;DHT22;16676;51.202;6.774;2023-05-10T17:02:21;22.50;70.90
29775;DHT22;16676;51.202;6.774;2023-05-10T17:06:23;22.60;72.90
29775;DHT22;16676;51.202;6.774;2023-05-10T17:10:25;22.70;68.30
29775;DHT22;16676;51.202;6.774;2023-05-10T17:14:29;22.80;66.50
29775;DHT22;16676;51.202;6.774;2023-05-10T17:18:30;22.70;65.00
29775;DHT22;16676;51.202;6.774;2023-05-10T17:22:32;22.70;64.00
29775;DHT22;16676;51.202;6.774;2023-05-10T17:26:34;22.70;65.70
29775;DHT22;16676;51.202;6.774;2023-05-10T17:30:38;22.70;64.70
29775;DHT22;16676;51.202;6.774;2023-05-10T17:34:40;22.70;65.20
29775;DHT22;16676;51.202;6.774;2023-05-10T17:38:42;22.70;66.10
29775;DHT22;16676;51.202;6.774;2023-05-10T17:42:44;22.80;65.50
29775;DHT22;16676;51.202;6.774;2023-05-10T17:46:47;22.70;65.70
29775;DHT22;16676;51.202;6.774;2023-05-10T17:50:49;22.70;65.10
29775;DHT22;16676;51.202;6.774;2023-05-10T17:54:51;22.70;64.40
29775;DHT22;16676;51.202;6.774;2023-05-10T17:58:53;22.70;64.90
29775;DHT22;16676;51.202;6.774;2023-05-10T18:02:56;22.70;66.70
29775;DHT22;16676;51.202;6.774;2023-05-10T18:06:58;22.70;65.70
29775;DHT22;16676;51.202;6.774;2023-05-10T18:11:01;22.70;66.70
29775;DHT22;16676;51.202;6.774;2023-05-10T18:15:04;22.70;66.50
29775;DHT22;16676;51.202;6.774;2023-05-10T18:19:07;22.70;67.50
29775;DHT22;16676;51.202;6.774;2023-05-10T18:23:09;22.70;67.90
29775;DHT22;16676;51.202;6.774;2023-05-10T18:27:11;22.70;68.60
29775;DHT22;16676;51.202;6.774;2023-05-10T18:31:13;22.70;69.70
29775;DHT22;16676;51.202;6.774;2023-05-10T18:35:17;22.80;68.90
29775;DHT22;16676;51.202;6.774;2023-05-10T18:39:19;22.70;67.10
29775;DHT22;16676;51.202;6.774;2023-05-10T18:43:21;22.70;68.30
29775;DHT22;16676;51.202;6.774;2023-05-10T18:47:23;22.70;69.00
29775;DHT22;16676;51.202;6.774;2023-05-10T18:51:27;22.70;68.70
29775;DHT22;16676;51.202;6.774;2023-05-10T18:55:31;22.70;69.40
29775;DHT22;16676;51.202;6.774;2023-05-10T18:59:33;22.70;68.60
29775;DHT22;16676;51.202;6.774;2023-05-10T19:03:34;22.70;68.80
29775;DHT22;16676;51.202;6.774;2023-05-10T19:07:38;22.70;67.90
29775;DHT22;16676;51.202;6.774;2023-05-10T19:11:43;22.70;69.20
29775;DHT22;16676;51.202;6.774;2023-05-10T19:15:44;22.70;68.90
29775;DHT22;16676;51.202;6.774;2023-05-10T19:19:46;22.70;69.60
29775;DHT22;16676;51.202;6.774;2023-05-10T19:23:49;22.70;69.20
29775;DHT22;16676;51.202;6.774;2023-05-10T19:27:51;22.70;68.00
29775;DHT22;16676;51.202;6.774;2023-05-10T19:31:53;22.70;69.00
29775;DHT22;16676;51.202;6.774;2023-05-10T19:35:55;22.60;68.20
29775;DHT22;16676;51.202;6.774;2023-05-10T19:39:59;22.60;67.60
29775;DHT22;16676;51.202;6.774;2023-05-10T19:44:01;22.60;68.20
29775;DHT22;16676;51.202;6.774;2023-05-10T19:48:03;22.60;69.90
29775;DHT22;16676;51.202;6.774;2023-05-10T19:52:05;22.60;68.20
29775;DHT22;16676;51.202;6.774;2023-05-10T19:56:08;22.60;67.00
29775;DHT22;16676;51.202;6.774;2023-05-10T20:00:12;22.60;68.10
29775;DHT22;16676;51.202;6.774;2023-05-10T20:04:14;22.60;66.70
29775;DHT22;16676;51.202;6.774;2023-05-10T20:08:16;22.60;67.50
29775;DHT22;16676;51.202;6.774;2023-05-10T20:12:19;22.60;69.00
29775;DHT22;16676;51.202;6.774;2023-05-10T20:16:21;22.60;67.00
29775;DHT22;16676;51.202;6.774;2023-05-10T20:20:23;22.50;68.20
29775;DHT22;16676;51.202;6.774;2023-05-10T20:24:25;22.50;67.40
29775;DHT22;16676;51.202;6.774;2023-05-10T20:28:28;22.50;68.60
29775;DHT22;16676;51.202;6.774;2023-05-10T20:32:30;22.50;68.10
29775;DHT22;16676;51.202;6.774;2023-05-10T20:36:32;22.50;68.10
29775;DHT22;16676;51.202;6.774;2023-05-10T20:40:34;22.50;68.00
29775;DHT22;16676;51.202;6.774;2023-05-10T20:44:38;22.50;68.40
29775;DHT22;16676;51.202;6.774;2023-05-10T20:48:39;22.50;67.80
29775;DHT22;16676;51.202;6.774;2023-05-10T20:52:41;22.50;66.20
29775;DHT22;16676;51.202;6.774;2023-05-10T20:56:43;22.40;67.30
29775;DHT22;16676;51.202;6.774;2023-05-10T21:00:46;22.40;67.30
29775;DHT22;16676;51.202;6.774;2023-05-10T21:04:48;22.40;66.70
29775;DHT22;16676;51.202;6.774;2023-05-10T21:08:50;22.40;65.20
29775;DHT22;16676;51.202;6.774;2023-05-10T21:12:52;22.30;65.50
29775;DHT22;16676;51.202;6.774;2023-05-10T21:16:55;22.40;67.90
29775;DHT22;16676;51.202;6.774;2023-05-10T21:20:57;22.40;67.40
29775;DHT22;16676;51.202;6.774;2023-05-10T21:24:59;22.40;65.30
29775;DHT22;16676;51.202;6.774;2023-05-10T21:29:01;22.30;65.20
29775;DHT22;16676;51.202;6.774;2023-05-10T21:33:05;22.30;65.70
29775;DHT22;16676;51.202;6.774;2023-05-10T21:37:07;22.40;67.10
29775;DHT22;16676;51.202;6.774;2023-05-10T21:41:09;22.30;65.40
29775;DHT22;16676;51.202;6.774;2023-05-10T21:45:11;22.30;65.60
29775;DHT22;16676;51.202;6.774;2023-05-10T21:49:15;22.30;65.10
29775;DHT22;16676;51.202;6.774;2023-05-10T21:53:16;22.30;66.10
29775;DHT22;16676;51.202;6.774;2023-05-10T21:57:18;22.30;65.90
29775;DHT22;16676;51.202;6.774;2023-05-10T22:01:21;22.30;65.90
29775;DHT22;16676;51.202;6.774;2023-05-10T22:05:24;22.30;65.20
29775;DHT22;16676;51.202;6.774;2023-05-10T22:09:26;22.20;66.20
29775;DHT22;16676;51.202;6.774;2023-05-10T22:13:28;22.30;66.60
29775;DHT22;16676;51.202;6.774;2023-05-10T22:17:30;22.20;67.20
29775;DHT22;16676;51.202;6.774;2023-05-10T22:21:33;22.30;66.70
29775;DHT22;16676;51.202;6.774;2023-05-10T22:25:35;22.20;66.70
29775;DHT22;16676;51.202;6.774;2023-05-10T22:29:37;22.20;65.50
29775;DHT22;16676;51.202;6.774;2023-05-10T22:33:39;22.20;66.80
29775;DHT22;16676;51.202;6.774;2023-05-10T22:37:42;22.20;65.80
29775;DHT22;16676;51.202;6.774;2023-05-10T22:41:44;22.20;65.90
29775;DHT22;16676;51.202;6.774;2023-05-10T22:45:46;22.20;65.00
29775;DHT22;16676;51.202;6.774;2023-05-10T22:49:48;22.20;65.70
29775;DHT22;16676;51.202;6.774;2023-05-10T22:53:51;22.20;64.80
29775;DHT22;16676;51.202;6.774;2023-05-10T22:57:53;22.20;65.10
29775;DHT22;16676;51.202;6.774;2023-05-10T23:01:55;22.20;66.10
29775;DHT22;16676;51.202;6.774;2023-05-10T23:05:57;22.10;65.00
29775;DHT22;16676;51.202;6.774;2023-05-10T23:10:00;22.10;64.80
29775;DHT22;16676;51.202;6.774;2023-05-10T23:14:02;22.10;65.50
29775;DHT22;16676;51.202;6.774;2023-05-10T23:18:04;22.10;65.20
29775;DHT22;16676;51.202;6.774;2023-05-10T23:22:06;22.10;65.30
29775;DHT22;16676;51.202;6.774;2023-05-10T23:26:10;22.10;67.30
29775;DHT22;16676;51.202;6.774;2023-05-10T23:30:12;22.10;65.80
29775;DHT22;16676;51.202;6.774;2023-05-10T23:34:14;22.10;66.80
29775;DHT22;16676;51.202;6.774;2023-05-10T23:38:17;22.10;67.60
29775;DHT22;16676;51.202;6.774;2023-05-10T23:42:20;22.10;65.30
29775;DHT22;16676;51.202;6.774;2023-05-10T23:46:22;22.10;66.50
29775;DHT22;16676;51.202;6.774;2023-05-10T23:50:24;22.10;65.40
29775;DHT22;16676;51.202;6.774;2023-05-10T23:54:26;22.10;67.60
29775;DHT22;16676;51.202;6.774;2023-05-10T23:58:29;22.10;67.60
